< < Back
Terminal Aerodrome Forecast


Current Version              Previous Versions:   1  2  3  4  5  6  7  8  9  

Terminal Aerodrome Forecast

910
FTUS42 KFFC 010523
TAFPDK
TAF
KPDK 010523Z 0106/0206 01005KT P6SM BKN070
     FM011600 05006KT P6SM SCT040
     FM012200 02004KT P6SM SCT050
     FM020200 00000KT P6SM FEW250=

Latest METAR

303
SAUS70 KWBC 012000 RRH
MTRPDK
METAR KPDK 011953Z VRB04KT 10SM CLR 33/17 A2996 RMK AO2 SLP123
T03280167


USA.gov is the U.S. government's official web portal to all federal, state and local government web resources and services.